sensor_id;sensor_type;location;lat;lon;timestamp;temperature;humidity
73570;SHT30;61850;54.980;73.298;2023-05-17T00:00:22;5.97;59.99
73570;SHT30;61850;54.980;73.298;2023-05-17T00:02:48;5.98;60.12
73570;SHT30;61850;54.980;73.298;2023-05-17T00:05:15;5.98;59.94
73570;SHT30;61850;54.980;73.298;2023-05-17T00:07:41;6.01;60.07
73570;SHT30;61850;54.980;73.298;2023-05-17T00:10:07;6.01;60.03
73570;SHT30;61850;54.980;73.298;2023-05-17T00:12:33;6.00;59.93
73570;SHT30;61850;54.980;73.298;2023-05-17T00:15:00;6.00;59.91
73570;SHT30;61850;54.980;73.298;2023-05-17T00:18:04;5.96;60.11
73570;SHT30;61850;54.980;73.298;2023-05-17T00:20:30;6.00;59.76
73570;SHT30;61850;54.980;73.298;2023-05-17T00:22:57;6.04;59.54
73570;SHT30;61850;54.980;73.298;2023-05-17T00:25:24;6.06;59.47
73570;SHT30;61850;54.980;73.298;2023-05-17T00:27:51;6.10;59.41
73570;SHT30;61850;54.980;73.298;2023-05-17T00:30:17;6.14;59.25
73570;SHT30;61850;54.980;73.298;2023-05-17T00:32:43;6.21;59.21
73570;SHT30;61850;54.980;73.298;2023-05-17T00:35:11;6.27;59.06
73570;SHT30;61850;54.980;73.298;2023-05-17T00:37:38;6.31;58.93
73570;SHT30;61850;54.980;73.298;2023-05-17T00:40:05;6.39;58.94
73570;SHT30;61850;54.980;73.298;2023-05-17T00:42:31;6.44;58.59
73570;SHT30;61850;54.980;73.298;2023-05-17T00:44:57;6.46;58.58
73570;SHT30;61850;54.980;73.298;2023-05-17T00:47:24;6.53;58.63
73570;SHT30;61850;54.980;73.298;2023-05-17T00:49:50;6.55;58.70
73570;SHT30;61850;54.980;73.298;2023-05-17T00:52:16;6.58;58.50
73570;SHT30;61850;54.980;73.298;2023-05-17T00:54:43;6.61;58.34
73570;SHT30;61850;54.980;73.298;2023-05-17T00:57:10;6.64;58.15
73570;SHT30;61850;54.980;73.298;2023-05-17T00:59:37;6.71;58.05
73570;SHT30;61850;54.980;73.298;2023-05-17T01:02:03;6.73;57.94
73570;SHT30;61850;54.980;73.298;2023-05-17T01:04:29;6.79;57.72
73570;SHT30;61850;54.980;73.298;2023-05-17T01:06:56;6.83;57.76
73570;SHT30;61850;54.980;73.298;2023-05-17T01:09:22;6.89;57.42
73570;SHT30;61850;54.980;73.298;2023-05-17T01:11:53;6.90;57.10
73570;SHT30;61850;54.980;73.298;2023-05-17T01:14:46;7.03;56.80
73570;SHT30;61850;54.980;73.298;2023-05-17T01:20:13;7.07;56.18
73570;SHT30;61850;54.980;73.298;2023-05-17T01:27:49;7.06;56.05
73570;SHT30;61850;54.980;73.298;2023-05-17T01:30:19;7.06;56.03
73570;SHT30;61850;54.980;73.298;2023-05-17T01:32:46;7.04;56.51
73570;SHT30;61850;54.980;73.298;2023-05-17T01:35:14;7.20;56.27
73570;SHT30;61850;54.980;73.298;2023-05-17T01:37:41;7.28;56.24
73570;SHT30;61850;54.980;73.298;2023-05-17T01:40:09;7.25;55.85
73570;SHT30;61850;54.980;73.298;2023-05-17T01:42:38;7.30;55.82
73570;SHT30;61850;54.980;73.298;2023-05-17T01:45:15;7.34;55.49
73570;SHT30;61850;54.980;73.298;2023-05-17T01:48:35;7.28;55.69
73570;SHT30;61850;54.980;73.298;2023-05-17T01:51:03;7.24;55.65
73570;SHT30;61850;54.980;73.298;2023-05-17T01:54:18;7.24;55.33
73570;SHT30;61850;54.980;73.298;2023-05-17T01:56:32;7.40;54.87
73570;SHT30;61850;54.980;73.298;2023-05-17T01:59:02;7.47;54.74
73570;SHT30;61850;54.980;73.298;2023-05-17T02:01:32;7.54;54.58
73570;SHT30;61850;54.980;73.298;2023-05-17T02:04:00;7.54;54.67
73570;SHT30;61850;54.980;73.298;2023-05-17T02:06:26;7.58;54.60
73570;SHT30;61850;54.980;73.298;2023-05-17T02:08:52;7.58;54.62
73570;SHT30;61850;54.980;73.298;2023-05-17T02:11:19;7.73;54.47
73570;SHT30;61850;54.980;73.298;2023-05-17T02:13:45;7.78;54.10
73570;SHT30;61850;54.980;73.298;2023-05-17T02:16:11;7.72;53.88
73570;SHT30;61850;54.980;73.298;2023-05-17T02:18:38;7.83;53.88
73570;SHT30;61850;54.980;73.298;2023-05-17T02:21:05;7.86;53.69
73570;SHT30;61850;54.980;73.298;2023-05-17T02:23:32;7.87;53.60
73570;SHT30;61850;54.980;73.298;2023-05-17T02:26:03;7.96;53.35
73570;SHT30;61850;54.980;73.298;2023-05-17T02:28:29;8.03;53.35
73570;SHT30;61850;54.980;73.298;2023-05-17T02:30:55;8.13;53.35
73570;SHT30;61850;54.980;73.298;2023-05-17T02:33:22;8.19;53.18
73570;SHT30;61850;54.980;73.298;2023-05-17T02:35:48;8.13;52.76
73570;SHT30;61850;54.980;73.298;2023-05-17T02:38:18;8.13;53.06
73570;SHT30;61850;54.980;73.298;2023-05-17T02:40:44;8.14;52.52
73570;SHT30;61850;54.980;73.298;2023-05-17T02:43:11;8.23;52.69
73570;SHT30;61850;54.980;73.298;2023-05-17T02:45:37;8.31;52.46
73570;SHT30;61850;54.980;73.298;2023-05-17T02:48:04;8.37;52.17
73570;SHT30;61850;54.980;73.298;2023-05-17T02:50:30;8.43;51.89
73570;SHT30;61850;54.980;73.298;2023-05-17T02:52:57;8.47;51.97
73570;SHT30;61850;54.980;73.298;2023-05-17T02:55:24;8.50;51.88
73570;SHT30;61850;54.980;73.298;2023-05-17T02:57:52;8.51;51.90
73570;SHT30;61850;54.980;73.298;2023-05-17T03:00:20;8.61;51.70
73570;SHT30;61850;54.980;73.298;2023-05-17T03:02:46;8.69;51.83
73570;SHT30;61850;54.980;73.298;2023-05-17T03:05:13;8.75;51.71
73570;SHT30;61850;54.980;73.298;2023-05-17T03:07:45;8.67;51.48
73570;SHT30;61850;54.980;73.298;2023-05-17T03:10:11;8.76;51.29
73570;SHT30;61850;54.980;73.298;2023-05-17T03:12:42;8.86;51.19
73570;SHT30;61850;54.980;73.298;2023-05-17T03:15:09;8.86;51.06
73570;SHT30;61850;54.980;73.298;2023-05-17T03:17:36;8.64;51.40
73570;SHT30;61850;54.980;73.298;2023-05-17T03:20:03;8.61;51.40
73570;SHT30;61850;54.980;73.298;2023-05-17T03:22:31;8.62;51.25
73570;SHT30;61850;54.980;73.298;2023-05-17T03:24:58;8.78;51.53
73570;SHT30;61850;54.980;73.298;2023-05-17T03:27:26;8.93;51.59
73570;SHT30;61850;54.980;73.298;2023-05-17T03:29:52;9.00;51.06
73570;SHT30;61850;54.980;73.298;2023-05-17T03:32:20;9.05;50.96
73570;SHT30;61850;54.980;73.298;2023-05-17T03:34:46;9.08;51.01
73570;SHT30;61850;54.980;73.298;2023-05-17T03:37:12;9.06;51.44
73570;SHT30;61850;54.980;73.298;2023-05-17T03:39:39;9.16;50.92
73570;SHT30;61850;54.980;73.298;2023-05-17T03:42:05;9.29;50.97
73570;SHT30;61850;54.980;73.298;2023-05-17T03:44:32;9.19;51.10
73570;SHT30;61850;54.980;73.298;2023-05-17T03:46:59;9.31;51.04
73570;SHT30;61850;54.980;73.298;2023-05-17T03:49:26;9.46;51.11
73570;SHT30;61850;54.980;73.298;2023-05-17T03:51:52;9.43;50.70
73570;SHT30;61850;54.980;73.298;2023-05-17T03:54:19;9.50;50.98
73570;SHT30;61850;54.980;73.298;2023-05-17T03:56:45;9.47;51.39
73570;SHT30;61850;54.980;73.298;2023-05-17T03:59:14;9.50;51.11
73570;SHT30;61850;54.980;73.298;2023-05-17T04:01:42;9.54;50.41
73570;SHT30;61850;54.980;73.298;2023-05-17T04:04:08;9.58;50.38
73570;SHT30;61850;54.980;73.298;2023-05-17T04:06:35;9.60;50.30
73570;SHT30;61850;54.980;73.298;2023-05-17T04:09:03;9.52;50.36
73570;SHT30;61850;54.980;73.298;2023-05-17T04:11:30;9.37;50.86
73570;SHT30;61850;54.980;73.298;2023-05-17T04:13:57;9.50;50.95
73570;SHT30;61850;54.980;73.298;2023-05-17T04:16:23;9.60;50.96
73570;SHT30;61850;54.980;73.298;2023-05-17T04:18:50;9.71;50.85
73570;SHT30;61850;54.980;73.298;2023-05-17T04:21:18;9.85;50.30
73570;SHT30;61850;54.980;73.298;2023-05-17T04:23:44;9.97;50.35
73570;SHT30;61850;54.980;73.298;2023-05-17T04:26:11;9.98;49.78
73570;SHT30;61850;54.980;73.298;2023-05-17T04:28:38;9.87;49.84
73570;SHT30;61850;54.980;73.298;2023-05-17T04:31:06;9.78;49.98
73570;SHT30;61850;54.980;73.298;2023-05-17T04:33:38;9.79;50.15
73570;SHT30;61850;54.980;73.298;2023-05-17T04:36:06;9.84;49.83
73570;SHT30;61850;54.980;73.298;2023-05-17T04:38:33;9.99;49.96
73570;SHT30;61850;54.980;73.298;2023-05-17T04:41:03;10.02;49.66
73570;SHT30;61850;54.980;73.298;2023-05-17T04:43:32;10.16;49.54
73570;SHT30;61850;54.980;73.298;2023-05-17T04:45:59;10.28;49.08
73570;SHT30;61850;54.980;73.298;2023-05-17T04:48:26;10.19;49.24
73570;SHT30;61850;54.980;73.298;2023-05-17T04:50:53;10.18;49.38
73570;SHT30;61850;54.980;73.298;2023-05-17T04:53:19;10.20;49.95
73570;SHT30;61850;54.980;73.298;2023-05-17T04:55:47;10.33;49.77
73570;SHT30;61850;54.980;73.298;2023-05-17T04:58:15;10.50;48.64
73570;SHT30;61850;54.980;73.298;2023-05-17T05:00:44;10.57;48.09
73570;SHT30;61850;54.980;73.298;2023-05-17T05:03:11;10.52;48.15
73570;SHT30;61850;54.980;73.298;2023-05-17T05:05:37;10.71;47.97
73570;SHT30;61850;54.980;73.298;2023-05-17T05:08:03;10.60;47.72
73570;SHT30;61850;54.980;73.298;2023-05-17T05:10:33;10.53;47.80
73570;SHT30;61850;54.980;73.298;2023-05-17T05:13:00;10.56;47.70
73570;SHT30;61850;54.980;73.298;2023-05-17T05:15:27;10.61;47.84
73570;SHT30;61850;54.980;73.298;2023-05-17T05:17:57;10.80;47.69
73570;SHT30;61850;54.980;73.298;2023-05-17T05:20:23;10.91;47.68
73570;SHT30;61850;54.980;73.298;2023-05-17T05:22:51;11.07;47.77
73570;SHT30;61850;54.980;73.298;2023-05-17T05:25:19;11.11;47.33
73570;SHT30;61850;54.980;73.298;2023-05-17T05:27:45;10.87;46.39
73570;SHT30;61850;54.980;73.298;2023-05-17T05:30:12;10.94;46.25
73570;SHT30;61850;54.980;73.298;2023-05-17T05:32:52;11.08;46.41
73570;SHT30;61850;54.980;73.298;2023-05-17T05:35:19;11.11;46.62
73570;SHT30;61850;54.980;73.298;2023-05-17T05:37:51;11.11;46.57
73570;SHT30;61850;54.980;73.298;2023-05-17T05:40:17;11.26;46.36
73570;SHT30;61850;54.980;73.298;2023-05-17T05:42:44;11.19;46.08
73570;SHT30;61850;54.980;73.298;2023-05-17T05:45:10;11.25;46.25
73570;SHT30;61850;54.980;73.298;2023-05-17T05:47:38;11.28;46.50
73570;SHT30;61850;54.980;73.298;2023-05-17T05:50:05;11.43;46.07
73570;SHT30;61850;54.980;73.298;2023-05-17T05:52:31;11.45;46.12
73570;SHT30;61850;54.980;73.298;2023-05-17T05:54:57;11.56;45.76
73570;SHT30;61850;54.980;73.298;2023-05-17T05:57:24;11.67;45.62
73570;SHT30;61850;54.980;73.298;2023-05-17T05:59:51;11.62;45.74
73570;SHT30;61850;54.980;73.298;2023-05-17T06:02:18;11.61;45.88
73570;SHT30;61850;54.980;73.298;2023-05-17T06:04:48;11.80;45.88
73570;SHT30;61850;54.980;73.298;2023-05-17T06:07:14;11.76;45.78
73570;SHT30;61850;54.980;73.298;2023-05-17T06:09:41;11.87;45.93
73570;SHT30;61850;54.980;73.298;2023-05-17T06:12:07;11.89;45.59
73570;SHT30;61850;54.980;73.298;2023-05-17T06:14:34;12.03;45.81
73570;SHT30;61850;54.980;73.298;2023-05-17T06:17:02;12.16;45.06
73570;SHT30;61850;54.980;73.298;2023-05-17T06:19:28;12.10;44.70
73570;SHT30;61850;54.980;73.298;2023-05-17T06:21:54;11.91;44.96
73570;SHT30;61850;54.980;73.298;2023-05-17T06:24:20;11.90;45.25
73570;SHT30;61850;54.980;73.298;2023-05-17T06:26:46;12.24;45.11
73570;SHT30;61850;54.980;73.298;2023-05-17T06:29:13;12.25;45.11
73570;SHT30;61850;54.980;73.298;2023-05-17T06:31:39;12.38;45.02
73570;SHT30;61850;54.980;73.298;2023-05-17T06:34:05;12.46;44.89
73570;SHT30;61850;54.980;73.298;2023-05-17T06:36:32;12.55;44.73
73570;SHT30;61850;54.980;73.298;2023-05-17T06:38:58;12.72;44.27
73570;SHT30;61850;54.980;73.298;2023-05-17T06:41:25;12.79;44.21
73570;SHT30;61850;54.980;73.298;2023-05-17T06:43:51;12.69;43.58
73570;SHT30;61850;54.980;73.298;2023-05-17T06:46:18;12.66;43.44
73570;SHT30;61850;54.980;73.298;2023-05-17T06:48:46;12.80;43.78
73570;SHT30;61850;54.980;73.298;2023-05-17T06:51:12;12.80;43.18
73570;SHT30;61850;54.980;73.298;2023-05-17T06:53:39;12.80;43.13
73570;SHT30;61850;54.980;73.298;2023-05-17T06:56:06;12.82;42.76
73570;SHT30;61850;54.980;73.298;2023-05-17T06:58:32;12.82;43.20
73570;SHT30;61850;54.980;73.298;2023-05-17T07:01:00;13.04;42.85
73570;SHT30;61850;54.980;73.298;2023-05-17T07:03:26;13.04;42.75
73570;SHT30;61850;54.980;73.298;2023-05-17T07:05:53;13.13;42.42
73570;SHT30;61850;54.980;73.298;2023-05-17T07:08:20;13.24;43.40
73570;SHT30;61850;54.980;73.298;2023-05-17T07:10:52;13.17;42.49
73570;SHT30;61850;54.980;73.298;2023-05-17T07:13:18;13.04;42.72
73570;SHT30;61850;54.980;73.298;2023-05-17T07:15:45;13.00;43.07
73570;SHT30;61850;54.980;73.298;2023-05-17T07:18:14;13.33;42.49
73570;SHT30;61850;54.980;73.298;2023-05-17T07:20:47;13.48;42.28
73570;SHT30;61850;54.980;73.298;2023-05-17T07:23:14;13.62;42.17
73570;SHT30;61850;54.980;73.298;2023-05-17T07:25:40;13.74;41.69
73570;SHT30;61850;54.980;73.298;2023-05-17T07:28:08;13.72;41.93
73570;SHT30;61850;54.980;73.298;2023-05-17T07:30:44;13.57;42.12
73570;SHT30;61850;54.980;73.298;2023-05-17T07:33:10;13.83;42.03
73570;SHT30;61850;54.980;73.298;2023-05-17T07:35:42;13.89;42.28
73570;SHT30;61850;54.980;73.298;2023-05-17T07:38:08;14.02;42.03
73570;SHT30;61850;54.980;73.298;2023-05-17T07:40:36;14.08;41.24
73570;SHT30;61850;54.980;73.298;2023-05-17T07:43:02;14.09;40.53
73570;SHT30;61850;54.980;73.298;2023-05-17T07:45:28;14.08;40.55
73570;SHT30;61850;54.980;73.298;2023-05-17T07:47:55;14.13;40.59
73570;SHT30;61850;54.980;73.298;2023-05-17T07:50:21;14.15;40.87
73570;SHT30;61850;54.980;73.298;2023-05-17T07:52:48;14.33;40.69
73570;SHT30;61850;54.980;73.298;2023-05-17T07:55:14;14.45;40.17
73570;SHT30;61850;54.980;73.298;2023-05-17T07:57:40;14.53;40.06
73570;SHT30;61850;54.980;73.298;2023-05-17T08:00:07;14.45;40.30
73570;SHT30;61850;54.980;73.298;2023-05-17T08:02:41;14.36;40.17
73570;SHT30;61850;54.980;73.298;2023-05-17T08:05:08;14.26;40.62
73570;SHT30;61850;54.980;73.298;2023-05-17T08:07:34;14.19;40.55
73570;SHT30;61850;54.980;73.298;2023-05-17T08:10:00;14.16;40.62
73570;SHT30;61850;54.980;73.298;2023-05-17T08:12:27;14.40;40.43
73570;SHT30;61850;54.980;73.298;2023-05-17T08:14:53;14.34;40.29
73570;SHT30;61850;54.980;73.298;2023-05-17T08:17:20;15.08;39.69
73570;SHT30;61850;54.980;73.298;2023-05-17T08:19:47;15.91;39.03
73570;SHT30;61850;54.980;73.298;2023-05-17T08:22:13;16.28;38.95
73570;SHT30;61850;54.980;73.298;2023-05-17T08:24:40;16.76;37.67
73570;SHT30;61850;54.980;73.298;2023-05-17T08:27:06;17.38;36.76
73570;SHT30;61850;54.980;73.298;2023-05-17T08:29:32;17.68;36.25
73570;SHT30;61850;54.980;73.298;2023-05-17T08:31:58;17.92;36.74
73570;SHT30;61850;54.980;73.298;2023-05-17T08:34:24;18.45;35.56
73570;SHT30;61850;54.980;73.298;2023-05-17T08:36:50;18.81;35.22
73570;SHT30;61850;54.980;73.298;2023-05-17T08:39:18;18.52;35.26
73570;SHT30;61850;54.980;73.298;2023-05-17T08:41:47;18.38;35.63
73570;SHT30;61850;54.980;73.298;2023-05-17T08:44:14;18.75;35.45
73570;SHT30;61850;54.980;73.298;2023-05-17T08:46:45;19.08;35.22
73570;SHT30;61850;54.980;73.298;2023-05-17T08:49:21;19.29;34.54
73570;SHT30;61850;54.980;73.298;2023-05-17T08:51:52;19.73;34.01
73570;SHT30;61850;54.980;73.298;2023-05-17T08:54:18;19.22;34.59
73570;SHT30;61850;54.980;73.298;2023-05-17T08:56:46;18.64;35.04
73570;SHT30;61850;54.980;73.298;2023-05-17T08:59:17;18.95;34.82
73570;SHT30;61850;54.980;73.298;2023-05-17T09:01:49;19.17;35.04
73570;SHT30;61850;54.980;73.298;2023-05-17T09:04:17;19.49;33.77
73570;SHT30;61850;54.980;73.298;2023-05-17T09:06:43;19.77;33.35
73570;SHT30;61850;54.980;73.298;2023-05-17T09:09:10;20.08;33.16
73570;SHT30;61850;54.980;73.298;2023-05-17T09:11:36;20.11;32.66
73570;SHT30;61850;54.980;73.298;2023-05-17T09:14:05;20.40;32.77
73570;SHT30;61850;54.980;73.298;2023-05-17T09:16:36;20.74;32.01
73570;SHT30;61850;54.980;73.298;2023-05-17T09:19:04;20.29;32.51
73570;SHT30;61850;54.980;73.298;2023-05-17T09:21:31;20.25;32.90
73570;SHT30;61850;54.980;73.298;2023-05-17T09:23:58;20.26;32.11
73570;SHT30;61850;54.980;73.298;2023-05-17T09:26:46;19.56;33.34
73570;SHT30;61850;54.980;73.298;2023-05-17T09:29:14;20.14;32.84
73570;SHT30;61850;54.980;73.298;2023-05-17T09:31:41;20.59;32.36
73570;SHT30;61850;54.980;73.298;2023-05-17T09:34:08;20.87;32.09
73570;SHT30;61850;54.980;73.298;2023-05-17T09:36:36;20.85;31.68
73570;SHT30;61850;54.980;73.298;2023-05-17T09:39:04;20.79;31.72
73570;SHT30;61850;54.980;73.298;2023-05-17T09:41:38;21.49;30.92
73570;SHT30;61850;54.980;73.298;2023-05-17T09:44:10;21.82;30.85
73570;SHT30;61850;54.980;73.298;2023-05-17T09:46:40;22.17;30.72
73570;SHT30;61850;54.980;73.298;2023-05-17T09:49:07;21.56;31.24
73570;SHT30;61850;54.980;73.298;2023-05-17T09:51:38;21.66;31.03
73570;SHT30;61850;54.980;73.298;2023-05-17T09:54:06;21.92;30.61
73570;SHT30;61850;54.980;73.298;2023-05-17T09:56:34;22.00;30.46
73570;SHT30;61850;54.980;73.298;2023-05-17T09:59:09;22.43;30.04
73570;SHT30;61850;54.980;73.298;2023-05-17T10:01:39;22.22;30.33
73570;SHT30;61850;54.980;73.298;2023-05-17T10:04:08;21.83;30.77
73570;SHT30;61850;54.980;73.298;2023-05-17T10:06:37;21.58;30.62
73570;SHT30;61850;54.980;73.298;2023-05-17T10:09:06;21.56;30.76
73570;SHT30;61850;54.980;73.298;2023-05-17T10:11:35;21.66;30.76
73570;SHT30;61850;54.980;73.298;2023-05-17T10:16:43;21.96;30.50
73570;SHT30;61850;54.980;73.298;2023-05-17T10:19:13;21.97;29.85
73570;SHT30;61850;54.980;73.298;2023-05-17T10:24:09;22.17;29.64
73570;SHT30;61850;54.980;73.298;2023-05-17T10:26:35;22.40;29.87
73570;SHT30;61850;54.980;73.298;2023-05-17T10:29:02;22.69;29.64
73570;SHT30;61850;54.980;73.298;2023-05-17T10:31:30;22.86;29.38
73570;SHT30;61850;54.980;73.298;2023-05-17T10:33:59;22.88;29.46
73570;SHT30;61850;54.980;73.298;2023-05-17T10:36:26;22.99;29.32
73570;SHT30;61850;54.980;73.298;2023-05-17T10:38:53;22.89;29.66
73570;SHT30;61850;54.980;73.298;2023-05-17T10:41:21;22.92;29.33
73570;SHT30;61850;54.980;73.298;2023-05-17T10:43:49;23.22;29.21
73570;SHT30;61850;54.980;73.298;2023-05-17T10:46:18;22.81;29.51
73570;SHT30;61850;54.980;73.298;2023-05-17T10:48:51;22.03;29.96
73570;SHT30;61850;54.980;73.298;2023-05-17T10:51:32;22.25;29.71
73570;SHT30;61850;54.980;73.298;2023-05-17T10:54:13;22.28;29.75
73570;SHT30;61850;54.980;73.298;2023-05-17T10:56:52;22.37;30.15
73570;SHT30;61850;54.980;73.298;2023-05-17T10:59:23;23.13;29.50
73570;SHT30;61850;54.980;73.298;2023-05-17T11:01:54;23.36;29.39
73570;SHT30;61850;54.980;73.298;2023-05-17T11:09:50;23.12;29.68
73570;SHT30;61850;54.980;73.298;2023-05-17T11:12:34;23.00;29.60
73570;SHT30;61850;54.980;73.298;2023-05-17T11:15:06;23.65;29.33
73570;SHT30;61850;54.980;73.298;2023-05-17T11:17:53;22.81;29.70
73570;SHT30;61850;54.980;73.298;2023-05-17T11:23:05;23.62;29.21
73570;SHT30;61850;54.980;73.298;2023-05-17T11:25:36;23.17;29.53
73570;SHT30;61850;54.980;73.298;2023-05-17T11:28:17;23.41;29.11
73570;SHT30;61850;54.980;73.298;2023-05-17T11:30:44;23.13;29.32
73570;SHT30;61850;54.980;73.298;2023-05-17T11:33:16;23.03;29.28
73570;SHT30;61850;54.980;73.298;2023-05-17T11:35:43;22.88;29.39
73570;SHT30;61850;54.980;73.298;2023-05-17T11:38:15;22.68;29.58
73570;SHT30;61850;54.980;73.298;2023-05-17T11:40:43;22.43;30.18
73570;SHT30;61850;54.980;73.298;2023-05-17T11:43:21;23.09;29.52
73570;SHT30;61850;54.980;73.298;2023-05-17T11:45:52;23.24;29.49
73570;SHT30;61850;54.980;73.298;2023-05-17T11:48:21;23.02;29.75
73570;SHT30;61850;54.980;73.298;2023-05-17T11:50:49;23.12;29.83
73570;SHT30;61850;54.980;73.298;2023-05-17T11:53:16;23.26;29.72
73570;SHT30;61850;54.980;73.298;2023-05-17T11:55:45;22.77;30.33
73570;SHT30;61850;54.980;73.298;2023-05-17T11:58:15;22.52;30.14
73570;SHT30;61850;54.980;73.298;2023-05-17T12:00:42;22.11;30.66
73570;SHT30;61850;54.980;73.298;2023-05-17T12:03:21;22.44;30.41
73570;SHT30;61850;54.980;73.298;2023-05-17T12:05:52;22.54;30.46
73570;SHT30;61850;54.980;73.298;2023-05-17T12:08:27;22.58;30.35
73570;SHT30;61850;54.980;73.298;2023-05-17T12:10:53;22.37;30.55
73570;SHT30;61850;54.980;73.298;2023-05-17T12:13:22;22.24;30.79
73570;SHT30;61850;54.980;73.298;2023-05-17T12:15:56;22.76;30.23
73570;SHT30;61850;54.980;73.298;2023-05-17T12:18:32;22.59;30.28
73570;SHT30;61850;54.980;73.298;2023-05-17T12:21:02;23.12;29.99
73570;SHT30;61850;54.980;73.298;2023-05-17T12:23:31;23.28;29.53
73570;SHT30;61850;54.980;73.298;2023-05-17T12:26:04;23.28;29.40
73570;SHT30;61850;54.980;73.298;2023-05-17T12:28:31;23.67;29.36
73570;SHT30;61850;54.980;73.298;2023-05-17T12:30:59;23.64;29.28
73570;SHT30;61850;54.980;73.298;2023-05-17T12:33:34;22.49;29.94
73570;SHT30;61850;54.980;73.298;2023-05-17T12:36:02;22.62;29.80
73570;SHT30;61850;54.980;73.298;2023-05-17T12:38:30;22.68;29.80
73570;SHT30;61850;54.980;73.298;2023-05-17T12:41:00;22.71;29.79
73570;SHT30;61850;54.980;73.298;2023-05-17T12:43:29;22.86;29.52
73570;SHT30;61850;54.980;73.298;2023-05-17T12:46:05;21.80;30.24
73570;SHT30;61850;54.980;73.298;2023-05-17T12:48:39;21.14;30.96
73570;SHT30;61850;54.980;73.298;2023-05-17T12:53:50;20.90;31.51
73570;SHT30;61850;54.980;73.298;2023-05-17T12:56:27;21.48;30.88
73570;SHT30;61850;54.980;73.298;2023-05-17T13:01:33;21.59;30.76
73570;SHT30;61850;54.980;73.298;2023-05-17T13:04:02;22.01;30.37
73570;SHT30;61850;54.980;73.298;2023-05-17T13:06:28;22.33;30.08
73570;SHT30;61850;54.980;73.298;2023-05-17T13:08:59;22.25;30.38
73570;SHT30;61850;54.980;73.298;2023-05-17T13:11:25;22.44;30.14
73570;SHT30;61850;54.980;73.298;2023-05-17T13:13:52;22.59;29.73
73570;SHT30;61850;54.980;73.298;2023-05-17T13:16:28;22.01;29.64
73570;SHT30;61850;54.980;73.298;2023-05-17T13:18:55;22.10;29.98
73570;SHT30;61850;54.980;73.298;2023-05-17T13:21:21;22.10;30.13
73570;SHT30;61850;54.980;73.298;2023-05-17T13:23:49;22.37;29.89
73570;SHT30;61850;54.980;73.298;2023-05-17T13:26:16;22.24;29.89
73570;SHT30;61850;54.980;73.298;2023-05-17T13:28:42;22.10;30.00
73570;SHT30;61850;54.980;73.298;2023-05-17T13:31:08;22.27;29.61
73570;SHT30;61850;54.980;73.298;2023-05-17T13:33:35;22.38;29.65
73570;SHT30;61850;54.980;73.298;2023-05-17T13:36:01;21.85;30.06
73570;SHT30;61850;54.980;73.298;2023-05-17T13:38:27;21.41;30.47
73570;SHT30;61850;54.980;73.298;2023-05-17T13:40:53;21.37;30.60
73570;SHT30;61850;54.980;73.298;2023-05-17T13:43:20;21.41;30.64
73570;SHT30;61850;54.980;73.298;2023-05-17T13:45:46;21.39;30.43
73570;SHT30;61850;54.980;73.298;2023-05-17T13:48:15;21.28;30.46
73570;SHT30;61850;54.980;73.298;2023-05-17T13:50:41;20.36;31.22
73570;SHT30;61850;54.980;73.298;2023-05-17T13:53:07;19.41;32.16
73570;SHT30;61850;54.980;73.298;2023-05-17T13:55:33;18.26;33.24
73570;SHT30;61850;54.980;73.298;2023-05-17T13:58:00;17.48;34.04
73570;SHT30;61850;54.980;73.298;2023-05-17T14:00:26;16.87;34.63
73570;SHT30;61850;54.980;73.298;2023-05-17T14:02:52;16.32;35.38
73570;SHT30;61850;54.980;73.298;2023-05-17T14:05:18;15.83;36.37
73570;SHT30;61850;54.980;73.298;2023-05-17T14:07:45;15.38;37.04
73570;SHT30;61850;54.980;73.298;2023-05-17T14:10:11;14.95;37.83
73570;SHT30;61850;54.980;73.298;2023-05-17T14:12:38;14.92;38.02
73570;SHT30;61850;54.980;73.298;2023-05-17T14:15:04;14.84;37.89
73570;SHT30;61850;54.980;73.298;2023-05-17T14:17:31;14.74;38.10
73570;SHT30;61850;54.980;73.298;2023-05-17T14:19:57;14.50;38.34
73570;SHT30;61850;54.980;73.298;2023-05-17T14:22:25;14.19;38.89
73570;SHT30;61850;54.980;73.298;2023-05-17T14:24:51;13.98;39.04
73570;SHT30;61850;54.980;73.298;2023-05-17T14:27:17;13.68;39.66
73570;SHT30;61850;54.980;73.298;2023-05-17T14:29:43;13.71;39.54
73570;SHT30;61850;54.980;73.298;2023-05-17T14:32:09;13.54;39.85
73570;SHT30;61850;54.980;73.298;2023-05-17T14:34:39;13.45;40.02
73570;SHT30;61850;54.980;73.298;2023-05-17T14:37:06;13.33;40.23
73570;SHT30;61850;54.980;73.298;2023-05-17T14:39:32;13.31;40.20
73570;SHT30;61850;54.980;73.298;2023-05-17T14:41:58;13.26;40.50
73570;SHT30;61850;54.980;73.298;2023-05-17T14:44:25;13.24;40.55
73570;SHT30;61850;54.980;73.298;2023-05-17T14:46:51;13.16;40.41
73570;SHT30;61850;54.980;73.298;2023-05-17T14:49:18;13.17;40.56
73570;SHT30;61850;54.980;73.298;2023-05-17T14:51:45;13.16;40.61
73570;SHT30;61850;54.980;73.298;2023-05-17T14:54:12;13.04;40.81
73570;SHT30;61850;54.980;73.298;2023-05-17T14:56:39;13.00;40.99
73570;SHT30;61850;54.980;73.298;2023-05-17T14:59:05;12.99;41.07
73570;SHT30;61850;54.980;73.298;2023-05-17T15:01:32;12.88;41.20
73570;SHT30;61850;54.980;73.298;2023-05-17T15:03:58;12.88;41.15
73570;SHT30;61850;54.980;73.298;2023-05-17T15:06:25;12.79;41.56
73570;SHT30;61850;54.980;73.298;2023-05-17T15:08:51;12.69;41.61
73570;SHT30;61850;54.980;73.298;2023-05-17T15:11:21;12.62;41.90
73570;SHT30;61850;54.980;73.298;2023-05-17T15:13:47;12.53;41.94
73570;SHT30;61850;54.980;73.298;2023-05-17T15:16:13;12.45;42.15
73570;SHT30;61850;54.980;73.298;2023-05-17T15:18:39;12.37;42.17
73570;SHT30;61850;54.980;73.298;2023-05-17T15:21:06;12.31;42.17
73570;SHT30;61850;54.980;73.298;2023-05-17T15:23:32;12.34;42.28
73570;SHT30;61850;54.980;73.298;2023-05-17T15:25:59;12.24;42.42
73570;SHT30;61850;54.980;73.298;2023-05-17T15:28:25;12.22;42.61
73570;SHT30;61850;54.980;73.298;2023-05-17T15:31:01;12.16;42.72
73570;SHT30;61850;54.980;73.298;2023-05-17T15:33:27;12.08;42.68
73570;SHT30;61850;54.980;73.298;2023-05-17T15:35:55;12.04;42.80
73570;SHT30;61850;54.980;73.298;2023-05-17T15:38:21;11.98;43.01
73570;SHT30;61850;54.980;73.298;2023-05-17T15:41:00;11.89;43.29
73570;SHT30;61850;54.980;73.298;2023-05-17T15:43:27;11.87;43.22
73570;SHT30;61850;54.980;73.298;2023-05-17T15:45:53;11.79;43.43
73570;SHT30;61850;54.980;73.298;2023-05-17T15:48:20;11.74;43.38
73570;SHT30;61850;54.980;73.298;2023-05-17T15:50:48;11.70;43.53
73570;SHT30;61850;54.980;73.298;2023-05-17T15:53:15;11.63;43.91